Time;durP1;ratioP1;P1;durP2;ratioP2;P2;SDS_P1;SDS_P2;PMS_P1;PMS_P2;Temp;Humidity;BMP_temperature;BMP_pressure;BME280_temperature;BME280_humidity;BME280_pressure;Samples;Min_cycle;Max_cycle;Signal;HPM_P1;HPM_P2
2021/05/12 00:01:12;;;;;;;1.33;1.23;;;10.40;1.00;;;;;;4856604;28;20190;-77
2021/05/12 00:03:34;;;;;;;0.93;0.93;;;;;;;;;;4858503;28;20571;-78
2021/05/12 00:05:58;;;;;;;1.50;1.40;;;;;;;;;;4855593;28;20218;-78
2021/05/12 00:08:20;;;;;;;2.03;1.83;;;;;;;;;;4858336;28;20210;-78
2021/05/12 00:10:42;;;;;;;1.30;1.20;;;;;;;;;;4858541;28;20646;-78
2021/05/12 00:13:04;;;;;;;2.70;1.17;;;;;;;;;;4858910;28;20273;-78
2021/05/12 00:15:27;;;;;;;1.47;1.37;;;;;;;;;;4866972;28;20714;-78
2021/05/12 00:17:52;;;;;;;1.03;1.00;;;10.40;1.00;;;;;;4841655;28;20182;-78
2021/05/12 00:20:20;;;;;;;1.07;1.03;;;10.30;1.00;;;;;;4874924;28;20189;-79
2021/05/12 00:22:46;;;;;;;0.90;0.90;;;10.40;1.00;;;;;;4876088;28;20185;-79
2021/05/12 00:25:11;;;;;;;1.87;1.77;;;10.30;1.00;;;;;;4856872;28;20695;-78
2021/05/12 00:27:33;;;;;;;1.00;1.00;;;;;;;;;;4840691;28;20190;-78
2021/05/12 00:29:55;;;;;;;0.93;0.93;;;;;;;;;;4857592;28;20190;-78
2021/05/12 00:32:17;;;;;;;1.50;1.40;;;;;;;;;;4857788;28;20208;-78
2021/05/12 00:34:40;;;;;;;1.27;1.17;;;10.30;1.00;;;;;;4876035;28;20235;-78
2021/05/12 00:37:03;;;;;;;1.07;1.07;;;10.20;1.00;;;;;;4856790;28;20555;-77
2021/05/12 00:39:25;;;;;;;1.20;1.10;;;;;;;;;;4859490;28;20189;-77
2021/05/12 00:41:48;;;;;;;0.83;0.83;;;;;;;;;;4858565;28;20198;-77
2021/05/12 00:44:17;;;;;;;1.00;1.00;;;10.00;1.00;;;;;;4857964;28;20193;-77
2021/05/12 00:46:43;;;;;;;0.93;0.93;;;9.90;1.00;;;;;;4874637;28;20185;-78
2021/05/12 00:49:05;;;;;;;0.97;0.93;;;;;;;;;;4856832;28;20719;-77
2021/05/12 00:51:28;;;;;;;1.40;1.30;;;9.80;1.00;;;;;;4840726;28;20194;-77
2021/05/12 00:53:50;;;;;;;1.37;1.00;;;;;;;;;;4857836;28;20228;-78
2021/05/12 00:56:13;;;;;;;1.23;1.20;;;;;;;;;;4874566;28;20223;-78
2021/05/12 00:58:35;;;;;;;1.03;1.03;;;9.70;1.00;;;;;;4875421;28;20728;-78
2021/05/12 01:00:57;;;;;;;1.00;1.00;;;;;;;;;;4855183;28;20194;-77
2021/05/12 01:03:19;;;;;;;1.10;1.10;;;;;;;;;;4841052;28;20574;-77
2021/05/12 01:05:57;;;;;;;0.87;0.87;;;9.60;1.00;;;;;;4856970;28;20217;-78
2021/05/12 01:08:20;;;;;;;1.07;1.07;;;9.60;1.00;;;;;;4874453;28;20603;-78
2021/05/12 01:10:43;;;;;;;0.83;0.83;;;9.60;1.00;;;;;;4874983;28;20235;-78
2021/05/12 01:13:05;;;;;;;1.03;1.03;;;;;;;;;;4875291;28;20206;-78
2021/05/12 01:15:27;;;;;;;1.20;1.20;;;;;;;;;;4832481;28;20269;-78
2021/05/12 01:17:50;;;;;;;0.93;0.93;;;;;;;;;;4857456;28;20252;-77
2021/05/12 01:20:13;;;;;;;1.00;1.00;;;9.90;1.30;;;;;;4856382;28;20565;-76
2021/05/12 01:22:36;;;;;;;1.10;1.10;;;9.50;12.00;;;;;;4874738;28;20591;-78
2021/05/12 01:24:58;;;;;;;0.97;0.97;;;9.40;36.90;;;;;;4875449;28;20200;-77
2021/05/12 01:27:21;;;;;;;1.07;1.07;;;;;;;;;;4856555;28;20194;-77
2021/05/12 01:29:43;;;;;;;1.30;1.03;;;;;;;;;;4839457;28;20202;-77
2021/05/12 01:32:07;;;;;;;1.10;1.10;;;9.60;31.00;;;;;;4856651;28;20235;-77
2021/05/12 01:34:29;;;;;;;1.27;1.00;;;9.60;50.90;;;;;;4857939;28;20196;-77
2021/05/12 01:36:51;;;;;;;0.80;0.80;;;;;;;;;;4874981;28;20181;-78
2021/05/12 01:39:15;;;;;;;1.00;1.00;;;9.40;30.30;;;;;;4857792;28;20189;-77
2021/05/12 01:41:38;;;;;;;0.97;0.97;;;;;;;;;;4845135;28;20190;-78
2021/05/12 01:44:03;;;;;;;1.37;1.27;;;9.30;33.50;;;;;;4860144;28;20200;-77
2021/05/12 01:46:25;;;;;;;1.00;1.00;;;;;;;;;;4860144;28;20186;-78
2021/05/12 01:48:48;;;;;;;1.00;1.00;;;;;;;;;;4860464;28;20236;-78
2021/05/12 01:51:12;;;;;;;1.07;1.00;;;9.30;54.10;;;;;;4860661;28;20728;-78
2021/05/12 01:53:34;;;;;;;1.13;1.13;;;;;;;;;;4878190;28;20182;-77
2021/05/12 01:55:57;;;;;;;0.93;0.93;;;9.40;74.60;;;;;;4844002;28;20653;-77
2021/05/12 01:58:20;;;;;;;1.20;1.10;;;;;;;;;;4844264;28;20198;-78
2021/05/12 02:00:43;;;;;;;1.47;1.37;;;9.20;58.90;;;;;;4858812;28;20248;-76
2021/05/12 02:03:07;;;;;;;1.20;1.00;;;;;;;;;;4843604;28;20249;-77
2021/05/12 02:05:30;;;;;;;1.00;1.00;;;;;;;;;;4876622;28;20538;-77
2021/05/12 02:07:52;;;;;;;1.20;1.10;;;9.20;92.00;;;;;;4844440;28;20639;-78
2021/05/12 02:10:15;;;;;;;1.00;1.00;;;9.10;93.50;;;;;;4856216;28;20676;-77
2021/05/12 02:12:38;;;;;;;1.07;1.07;;;9.20;78.30;;;;;;4844181;28;20539;-78
2021/05/12 02:15:00;;;;;;;1.27;1.10;;;;;;;;;;4875917;28;20278;-77
2021/05/12 02:17:22;;;;;;;1.13;1.13;;;;;;;;;;4868144;28;20714;-77
2021/05/12 02:19:45;;;;;;;2.00;1.27;;;9.20;98.90;;;;;;4878558;28;20239;-77
2021/05/12 02:22:07;;;;;;;1.07;1.07;;;9.20;94.40;;;;;;4868285;28;20651;-77
2021/05/12 02:24:29;;;;;;;1.67;1.47;;;8.90;97.90;;;;;;4859544;28;20194;-78
2021/05/12 02:26:51;;;;;;;1.07;1.07;;;;;;;;;;4859214;28;20202;-77
2021/05/12 02:29:14;;;;;;;1.60;1.00;;;10.00;87.20;;;;;;4877835;28;20251;-78
2021/05/12 02:31:37;;;;;;;1.07;1.07;;;;;;;;;;4859708;28;20182;-78
2021/05/12 02:33:59;;;;;;;1.07;1.07;;;;;;;;;;4844176;28;20253;-77
2021/05/12 02:36:21;;;;;;;2.57;1.33;;;;;;;;;;4858917;28;20279;-77
2021/05/12 02:38:43;;;;;;;1.23;1.00;;;;;;;;;;4859888;28;20574;-78
2021/05/12 02:41:07;;;;;;;1.33;1.23;;;;;;;;;;4875868;28;20205;-78
2021/05/12 02:43:29;;;;;;;1.20;1.20;;;9.20;99.90;;;;;;4875326;28;20626;-78
2021/05/12 02:45:53;;;;;;;1.30;1.20;;;8.80;99.90;;;;;;4857040;28;20236;-78
2021/05/12 02:48:15;;;;;;;1.20;1.20;;;9.10;99.90;;;;;;4874743;28;20220;-78
2021/05/12 02:50:38;;;;;;;1.10;1.10;;;8.60;99.90;;;;;;4843111;28;20199;-77
2021/05/12 02:53:02;;;;;;;1.10;1.10;;;9.50;99.90;;;;;;4877608;28;20240;-78
2021/05/12 02:55:25;;;;;;;1.00;1.00;;;9.20;99.90;;;;;;4876581;28;20201;-77
2021/05/12 02:57:48;;;;;;;0.83;0.83;;;;;;;;;;4859569;28;20190;-79
2021/05/12 03:00:11;;;;;;;1.00;1.00;;;9.20;99.90;;;;;;4876857;28;20185;-78
2021/05/12 03:02:34;;;;;;;1.27;1.20;;;9.30;99.90;;;;;;4857213;28;20260;-78
2021/05/12 03:04:56;;;;;;;2.60;1.27;;;;;;;;;;4877507;28;20239;-77
2021/05/12 03:07:19;;;;;;;1.23;1.13;;;;;;;;;;4858564;28;20217;-78
2021/05/12 03:09:41;;;;;;;1.40;1.30;;;;;;;;;;4858926;28;20240;-78
2021/05/12 03:12:03;;;;;;;1.10;1.00;;;;;;;;;;4843177;28;20257;-77
2021/05/12 03:14:25;;;;;;;1.50;1.27;;;9.30;99.90;;;;;;4875280;28;20256;-77
2021/05/12 03:16:48;;;;;;;1.20;1.10;;;9.40;99.90;;;;;;4841765;28;20207;-77
2021/05/12 03:19:12;;;;;;;2.93;1.13;;;9.50;99.90;;;;;;4842713;28;20194;-77
2021/05/12 03:21:34;;;;;;;1.03;1.03;;;9.50;99.90;;;;;;4851962;28;20252;-78
2021/05/12 03:23:56;;;;;;;0.87;0.87;;;;;;;;;;4874499;28;20198;-78
2021/05/12 03:26:19;;;;;;;1.13;1.03;;;9.50;99.90;;;;;;4874816;28;20185;-77
2021/05/12 03:28:43;;;;;;;1.13;1.10;;;;;;;;;;4877447;28;20197;-78
2021/05/12 03:31:06;;;;;;;1.20;1.03;;;;;;;;;;4825788;28;20630;-77
2021/05/12 03:33:38;;;;;;;1.73;1.13;;;9.30;99.90;;;;;;4851991;28;20209;-79
2021/05/12 03:36:02;;;;;;;1.30;1.10;;;9.50;99.90;;;;;;4873645;28;20232;-78
2021/05/12 03:38:26;;;;;;;1.23;1.13;;;;;;;;;;4858261;28;20186;-79
2021/05/12 03:40:50;;;;;;;1.00;1.00;;;10.20;99.90;;;;;;4876354;28;20586;-77
2021/05/12 03:43:25;;;;;;;1.67;1.07;;;9.70;99.90;;;;;;4858223;28;20683;-78
2021/05/12 03:45:50;;;;;;;1.00;1.00;;;9.70;99.90;;;;;;4875742;28;20177;-77
2021/05/12 03:48:23;;;;;;;1.27;1.17;;;9.70;99.90;;;;;;4876913;28;20571;-78
2021/05/12 03:50:48;;;;;;;0.80;0.80;;;9.70;99.90;;;;;;4876371;28;20201;-77
2021/05/12 03:53:16;;;;;;;0.93;0.93;;;9.80;99.90;;;;;;4875693;28;20720;-78
2021/05/12 03:55:45;;;;;;;1.03;1.03;;;9.70;99.90;;;;;;4874834;28;20209;-79
2021/05/12 03:58:19;;;;;;;0.97;0.97;;;9.40;99.90;;;;;;4876830;28;20551;-79
2021/05/12 04:00:46;;;;;;;2.40;1.13;;;10.40;99.90;;;;;;4864509;28;20205;-78
2021/05/12 04:03:12;;;;;;;0.90;0.90;;;;;;;;;;4873454;28;20372;-78
2021/05/12 04:05:34;;;;;;;1.10;1.00;;;;;;;;;;4857107;28;20252;-76
2021/05/12 04:07:56;;;;;;;0.97;0.97;;;;;;;;;;4871492;28;20258;-77
2021/05/12 04:10:20;;;;;;;5.97;1.33;;;10.30;99.90;;;;;;4841852;28;20199;-78
2021/05/12 04:12:42;;;;;;;3.90;1.27;;;10.40;99.90;;;;;;4876750;28;20245;-78
2021/05/12 04:15:06;;;;;;;1.97;1.30;;;10.50;99.90;;;;;;4874748;28;20216;-79
2021/05/12 04:17:29;;;;;;;1.40;1.13;;;;;;;;;;4874279;28;20654;-77
2021/05/12 04:19:51;;;;;;;0.90;0.90;;;;;;;;;;4858643;28;20723;-77
2021/05/12 04:22:13;;;;;;;1.03;0.93;;;;;;;;;;4876371;28;20231;-78
2021/05/12 04:24:36;;;;;;;0.80;0.80;;;;;;;;;;4842023;28;20190;-78
2021/05/12 04:26:58;;;;;;;1.00;1.00;;;11.00;99.90;;;;;;4857007;28;20194;-78
2021/05/12 04:29:21;;;;;;;1.03;1.03;;;;;;;;;;4875972;28;20720;-78
2021/05/12 04:31:43;;;;;;;0.70;0.70;;;;;;;;;;4877355;28;20181;-78
2021/05/12 04:34:06;;;;;;;0.83;0.83;;;;;;;;;;4857992;28;20185;-77
2021/05/12 04:36:28;;;;;;;0.90;0.90;;;;;;;;;;4856679;28;20234;-78
2021/05/12 04:38:51;;;;;;;0.80;0.80;;;;;;;;;;4841163;28;20727;-78
2021/05/12 04:41:13;;;;;;;0.70;0.70;;;11.70;99.90;;;;;;4825129;28;20203;-78
2021/05/12 04:43:36;;;;;;;0.70;0.70;;;11.70;99.90;;;;;;4842246;28;20186;-81
2021/05/12 04:45:59;;;;;;;0.70;0.63;;;;;;;;;;4857688;28;20198;-78
2021/05/12 04:48:21;;;;;;;1.03;0.90;;;;;;;;;;4855052;28;20263;-78
2021/05/12 04:50:43;;;;;;;0.57;0.57;;;;;;;;;;4858553;28;20202;-78
2021/05/12 04:53:06;;;;;;;0.70;0.70;;;;;;;;;;4857782;28;20745;-78
2021/05/12 04:55:29;;;;;;;0.70;0.70;;;;;;;;;;4856374;28;20290;-78
2021/05/12 04:57:51;;;;;;;0.70;0.70;;;;;;;;;;4866619;28;20239;-78
2021/05/12 05:00:19;;;;;;;0.60;0.60;;;12.70;1.00;;;;;;4876196;28;20298;-79
2021/05/12 05:02:41;;;;;;;0.57;0.57;;;;;;;;;;4856226;28;20222;-80
2021/05/12 05:05:05;;;;;;;0.67;0.67;;;;;;;;;;4840904;28;20253;-77
2021/05/12 05:07:29;;;;;;;0.80;0.80;;;13.00;1.00;;;;;;4835106;28;20667;-78
2021/05/12 05:09:53;;;;;;;0.83;0.50;;;13.30;1.00;;;;;;4874463;28;20381;-79
2021/05/12 05:12:15;;;;;;;0.80;0.80;;;13.50;1.00;;;;;;4859024;28;20248;-78
2021/05/12 05:14:37;;;;;;;0.73;0.70;;;13.70;1.00;;;;;;4825446;28;20220;-80
2021/05/12 05:17:02;;;;;;;0.70;0.70;;;13.70;1.00;;;;;;4873811;28;20259;-79
2021/05/12 05:19:25;;;;;;;0.60;0.60;;;;;;;;;;4839298;28;20208;-79
2021/05/12 05:21:48;;;;;;;0.60;0.60;;;14.00;99.90;;;;;;4841668;28;20195;-79
2021/05/12 05:24:10;;;;;;;0.57;0.57;;;14.20;1.00;;;;;;4858492;28;20258;-79
2021/05/12 05:26:33;;;;;;;0.50;0.50;;;;;;;;;;4874916;28;20251;-79
2021/05/12 05:28:55;;;;;;;0.50;0.50;;;;;;;;;;4858333;28;20194;-80
2021/05/12 05:31:18;;;;;;;0.67;0.67;;;14.60;99.90;;;;;;4872712;28;20668;-79
2021/05/12 05:34:00;;;;;;;0.63;0.63;;;14.70;99.90;;;;;;4874584;28;20201;-79
2021/05/12 05:36:40;;;;;;;0.50;0.50;;;;;;;;;;4873847;28;20216;-83
2021/05/12 05:39:21;;;;;;;0.60;0.60;;;15.10;1.00;;;;;;4874847;28;20701;-81
2021/05/12 05:42:03;;;;;;;0.50;0.50;;;15.30;1.00;;;;;;4872981;28;20182;-80
2021/05/12 05:44:44;;;;;;;0.50;0.50;;;15.40;99.90;;;;;;4873688;28;20185;-81
2021/05/12 05:47:26;;;;;;;0.53;0.53;;;15.00;1.00;;;;;;4873693;28;20235;-81
2021/05/12 05:50:08;;;;;;;0.50;0.50;;;15.80;99.90;;;;;;4874917;28;20908;-79
2021/05/12 05:52:50;;;;;;;0.43;0.43;;;;;;;;;;4858825;28;20219;-81
2021/05/12 05:55:31;;;;;;;0.50;0.50;;;;;;;;;;4867788;28;20187;-82
2021/05/12 05:58:12;;;;;;;0.57;0.57;;;;;;;;;;4874120;28;20235;-81
2021/05/12 06:00:53;;;;;;;0.37;0.37;;;16.60;1.00;;;;;;4871576;28;20662;-81
2021/05/12 06:03:15;;;;;;;0.50;0.50;;;;;;;;;;4870442;28;20275;-83
2021/05/12 06:05:56;;;;;;;0.50;0.50;;;16.90;73.10;;;;;;4874315;28;20221;-78
2021/05/12 06:08:37;;;;;;;0.30;0.30;;;;;;;;;;4875738;28;20169;-81
2021/05/12 06:11:18;;;;;;;0.53;0.53;;;;;;;;;;4874215;28;20250;-81
2021/05/12 06:13:59;;;;;;;0.50;0.50;;;18.50;1.00;;;;;;4874312;28;20182;-79
2021/05/12 06:16:40;;;;;;;0.33;0.33;;;;;;;;;;4868865;28;20205;-79
2021/05/12 06:19:21;;;;;;;0.50;0.50;;;18.20;1.00;;;;;;4870194;28;20257;-78
2021/05/12 06:22:03;;;;;;;0.60;0.60;;;18.60;1.00;;;;;;4870592;28;20247;-79
2021/05/12 06:24:44;;;;;;;1.03;0.60;;;;;;;;;;4859838;28;20165;-77
2021/05/12 06:27:24;;;;;;;0.50;0.50;;;18.60;1.00;;;;;;4859528;28;20208;-81
2021/05/12 06:30:06;;;;;;;0.33;0.33;;;18.70;1.00;;;;;;4878075;28;20227;-77
2021/05/12 06:32:50;;;;;;;0.40;0.40;;;;;;;;;;4874929;28;20505;-79
2021/05/12 06:35:31;;;;;;;0.40;0.40;;;;;;;;;;4877167;28;20214;-79
2021/05/12 06:38:13;;;;;;;0.47;0.47;;;19.00;1.00;;;;;;4871299;28;20258;-78
2021/05/12 06:40:37;;;;;;;0.53;0.53;;;;;;;;;;4860317;28;20203;-79
2021/05/12 06:43:00;;;;;;;4.73;1.70;;;19.10;1.00;;;;;;4843742;28;20585;-78
2021/05/12 06:45:23;;;;;;;0.53;0.53;;;19.50;1.00;;;;;;4870312;28;20722;-80
2021/05/12 06:47:53;;;;;;;0.47;0.47;;;18.80;1.00;;;;;;4858546;28;20643;-78
2021/05/12 06:50:16;;;;;;;0.50;0.50;;;;;;;;;;4877695;28;20183;-79
2021/05/12 06:52:38;;;;;;;0.57;0.57;;;19.80;1.00;;;;;;4877670;28;20647;-80
2021/05/12 06:55:01;;;;;;;0.50;0.50;;;19.70;99.90;;;;;;4841199;28;20192;-77
2021/05/12 06:57:23;;;;;;;0.70;0.70;;;19.80;1.00;;;;;;4854358;28;20635;-76
2021/05/12 06:59:46;;;;;;;0.70;0.70;;;;;;;;;;4860723;28;20648;-78
2021/05/12 07:02:08;;;;;;;1.53;1.20;;;;;;;;;;4851595;28;20739;-77
2021/05/12 07:04:30;;;;;;;1.17;1.07;;;;;;;;;;4874802;28;20775;-77
2021/05/12 07:06:52;;;;;;;0.60;0.60;;;;;;;;;;4841802;28;20228;-79
2021/05/12 07:09:15;;;;;;;1.27;1.07;;;;;;;;;;4857278;28;20597;-79
2021/05/12 07:11:38;;;;;;;0.80;0.80;;;21.70;1.00;;;;;;4875788;28;20245;-78
2021/05/12 07:14:00;;;;;;;0.63;0.63;;;21.50;1.00;;;;;;4842436;28;20201;-77
2021/05/12 07:16:23;;;;;;;0.63;0.63;;;;;;;;;;4841512;28;20615;-76
2021/05/12 07:18:45;;;;;;;0.67;0.67;;;;;;;;;;4875573;28;20598;-77
2021/05/12 07:21:07;;;;;;;0.50;0.50;;;;;;;;;;4874965;28;20227;-77
2021/05/12 07:23:29;;;;;;;0.47;0.47;;;;;;;;;;4876386;28;20211;-78
2021/05/12 07:25:55;;;;;;;0.60;0.60;;;22.50;99.90;;;;;;4873857;28;20245;-78
2021/05/12 07:28:19;;;;;;;0.77;0.77;;;22.80;99.90;;;;;;4866603;28;20689;-79
2021/05/12 07:30:41;;;;;;;0.60;0.60;;;23.50;1.00;;;;;;4875633;28;20191;-77
2021/05/12 07:33:04;;;;;;;0.77;0.77;;;22.80;99.90;;;;;;4875334;28;20284;-78
2021/05/12 07:35:26;;;;;;;0.73;0.73;;;23.80;99.90;;;;;;4868087;28;20696;-78
2021/05/12 07:37:48;;;;;;;0.47;0.47;;;23.90;1.00;;;;;;4876434;28;20210;-77
2021/05/12 07:40:11;;;;;;;0.90;0.90;;;24.20;99.90;;;;;;4875730;28;20194;-78
2021/05/12 07:42:35;;;;;;;0.70;0.70;;;;;;;;;;4857967;28;20685;-77
2021/05/12 07:44:58;;;;;;;0.60;0.60;;;24.20;99.90;;;;;;4858757;28;20958;-79
2021/05/12 07:47:20;;;;;;;0.40;0.40;;;24.70;1.00;;;;;;4857536;28;20619;-77
2021/05/12 07:49:43;;;;;;;0.73;0.73;;;;;;;;;;4858515;28;20721;-76
2021/05/12 07:52:13;;;;;;;1.00;0.90;;;24.10;1.00;;;;;;4840845;28;20208;-77
2021/05/12 07:54:35;;;;;;;0.73;0.73;;;24.60;1.00;;;;;;4858457;28;20204;-77
2021/05/12 07:56:57;;;;;;;0.63;0.63;;;;;;;;;;4851592;28;20593;-77
2021/05/12 07:59:19;;;;;;;1.10;1.00;;;24.60;1.00;;;;;;4875161;28;20669;-77
2021/05/12 08:01:43;;;;;;;0.90;0.90;;;24.30;99.90;;;;;;4870869;28;21017;-76
2021/05/12 08:04:06;;;;;;;0.90;0.90;;;24.80;1.00;;;;;;4872641;28;20218;-76
2021/05/12 08:06:28;;;;;;;0.67;0.67;;;;;;;;;;4874505;28;21072;-76
2021/05/12 08:08:51;;;;;;;0.50;0.50;;;;;;;;;;4875765;28;20192;-77
2021/05/12 08:11:13;;;;;;;0.77;0.77;;;;;;;;;;4858116;28;20635;-77
2021/05/12 08:13:35;;;;;;;0.70;0.70;;;;;;;;;;4857524;28;20686;-79
2021/05/12 08:15:58;;;;;;;0.43;0.43;;;24.80;99.90;;;;;;4873411;28;20205;-77
2021/05/12 08:18:21;;;;;;;0.83;0.83;;;24.70;1.00;;;;;;4840050;28;20258;-77
2021/05/12 08:20:43;;;;;;;0.53;0.53;;;25.10;1.00;;;;;;4859594;28;20185;-77
2021/05/12 08:23:06;;;;;;;0.77;0.77;;;24.70;1.00;;;;;;4832777;28;20208;-76
2021/05/12 08:25:28;;;;;;;0.40;0.40;;;;;;;;;;4872794;28;21000;-77
2021/05/12 08:27:53;;;;;;;0.83;0.83;;;25.20;1.00;;;;;;4858343;28;20199;-77
2021/05/12 08:30:15;;;;;;;0.60;0.60;;;25.10;1.00;;;;;;4874287;28;20208;-76
2021/05/12 08:32:37;;;;;;;0.60;0.60;;;24.80;99.90;;;;;;4857884;28;20200;-77
2021/05/12 08:35:01;;;;;;;0.33;0.33;;;25.30;99.90;;;;;;4874741;28;20244;-76
2021/05/12 08:37:23;;;;;;;0.50;0.50;;;;;;;;;;4856857;28;20247;-76
2021/05/12 08:39:45;;;;;;;0.77;0.77;;;25.80;1.00;;;;;;4875249;28;20258;-77
2021/05/12 08:42:08;;;;;;;0.70;0.70;;;25.80;99.90;;;;;;4857706;28;20262;-80
2021/05/12 08:44:33;;;;;;;0.90;0.83;;;25.90;99.90;;;;;;4853858;28;20662;-77
2021/05/12 08:46:55;;;;;;;1.40;0.70;;;;;;;;;;4873491;28;20188;-79
2021/05/12 08:49:18;;;;;;;4.13;1.60;;;26.40;99.90;;;;;;4873834;28;20216;-77
2021/05/12 08:51:43;;;;;;;4.73;1.97;;;26.90;1.00;;;;;;4869897;28;20240;-77
2021/05/12 08:54:05;;;;;;;3.03;1.57;;;;;;;;;;4857187;28;20197;-76
2021/05/12 08:56:27;;;;;;;1.53;1.13;;;;;;;;;;4855499;28;20753;-76
2021/05/12 08:58:50;;;;;;;2.63;1.63;;;28.20;1.00;;;;;;4875215;28;20181;-80
2021/05/12 09:01:12;;;;;;;3.43;1.67;;;;;;;;;;4862347;28;20193;-79
2021/05/12 09:03:35;;;;;;;6.57;2.17;;;;;;;;;;4857440;28;20260;-76
2021/05/12 09:05:58;;;;;;;8.27;2.73;;;29.10;99.90;;;;;;4874763;28;20322;-77
2021/05/12 09:08:21;;;;;;;7.57;2.07;;;29.50;99.90;;;;;;4874953;28;20170;-76
2021/05/12 09:10:43;;;;;;;13.17;2.40;;;;;;;;;;4867308;28;20204;-77
2021/05/12 09:13:06;;;;;;;19.60;2.87;;;;;;;;;;4850936;28;20206;-78
2021/05/12 09:15:29;;;;;;;17.23;2.90;;;32.20;99.90;;;;;;4856547;28;20220;-77
2021/05/12 09:17:52;;;;;;;16.63;2.58;;;34.10;99.90;;;;;;4855406;28;20270;-78
2021/05/12 09:20:30;;;;;;;19.45;2.92;;;36.30;99.90;;;;;;4856173;28;20252;-81
2021/05/12 09:23:12;;;;;;;12.57;1.92;;;38.50;99.90;;;;;;4852916;28;20194;-77
2021/05/12 09:25:37;;;;;;;12.75;2.00;;;40.70;1.00;;;;;;4872504;28;20696;-80
2021/05/12 09:28:10;;;;;;;12.95;2.10;;;42.40;99.90;;;;;;4874785;28;20242;-80
2021/05/12 09:30:35;;;;;;;18.10;2.70;;;44.10;99.90;;;;;;4874145;28;20554;-82
2021/05/12 09:32:58;;;;;;;14.35;2.15;;;;;;;;;;4872882;28;20720;-78
2021/05/12 09:35:23;;;;;;;35.08;4.85;;;46.30;99.90;;;;;;4873034;28;20760;-79
2021/05/12 09:37:46;;;;;;;20.35;5.60;;;47.20;99.90;;;;;;4857142;28;20193;-80
2021/05/12 09:40:10;;;;;;;120.53;113.88;;;47.30;99.90;;;;;;4856829;28;20209;-76
2021/05/12 09:42:35;;;;;;;112.25;104.50;;;48.30;99.90;;;;;;4856547;28;20889;-80
2021/05/12 09:45:12;;;;;;;11.23;1.90;;;49.40;1.00;;;;;;4875227;28;20593;-80
2021/05/12 09:47:34;;;;;;;10.02;1.77;;;;;;;;;;4850452;28;20213;-78
2021/05/12 09:49:56;;;;;;;17.83;2.80;;;;;;;;;;4874292;28;20185;-79
2021/05/12 09:52:28;;;;;;;21.38;3.22;;;51.90;99.90;;;;;;4873940;28;20246;-78
2021/05/12 09:55:01;;;;;;;18.50;6.10;;;52.80;99.90;;;;;;4823961;28;20554;-79
2021/05/12 09:57:23;;;;;;;170.52;161.02;;;;;;;;;;4856994;28;20201;-81
2021/05/12 09:59:46;;;;;;;428.88;400.08;;;53.40;99.90;;;;;;4856602;28;20201;-80
2021/05/12 10:02:08;;;;;;;366.90;344.38;;;;;;;;;;4872403;28;20228;-80
2021/05/12 10:04:34;;;;;;;458.45;429.15;;;54.30;99.90;;;;;;4859923;28;20227;-77
2021/05/12 10:06:57;;;;;;;151.65;142.93;;;54.70;99.90;;;;;;4859315;28;20243;-78
2021/05/12 10:09:20;;;;;;;308.73;291.00;;;55.70;1.00;;;;;;4859925;28;20263;-78
2021/05/12 10:11:43;;;;;;;154.05;141.70;;;;;;;;;;4843126;28;20225;-81
2021/05/12 10:14:05;;;;;;;72.82;67.72;;;;;;;;;;4842170;28;20201;-81
2021/05/12 10:16:28;;;;;;;88.82;82.53;;;56.10;1.00;;;;;;4859744;28;20240;-81
2021/05/12 10:18:51;;;;;;;17.67;5.43;;;;;;;;;;4860529;28;20605;-82
2021/05/12 10:21:13;;;;;;;16.52;7.55;;;54.30;99.90;;;;;;4860224;28;20198;-78
2021/05/12 10:23:37;;;;;;;39.63;14.02;;;55.50;99.90;;;;;;4876516;28;20192;-78
2021/05/12 10:25:59;;;;;;;13.77;11.45;;;55.60;1.00;;;;;;4859824;28;20185;-81
2021/05/12 10:28:22;;;;;;;46.80;42.33;;;56.50;99.90;;;;;;4877963;28;20203;-78
2021/05/12 10:30:47;;;;;;;69.35;63.65;;;56.70;99.90;;;;;;4843850;28;20201;-79
2021/05/12 10:33:12;;;;;;;64.50;58.92;;;56.60;1.00;;;;;;4877755;28;20207;-79
2021/05/12 10:35:36;;;;;;;105.72;98.00;;;57.30;1.00;;;;;;4858457;28;20255;-75
2021/05/12 10:37:58;;;;;;;57.15;53.15;;;57.60;1.00;;;;;;4877880;28;20616;-82
2021/05/12 10:40:23;;;;;;;69.40;63.28;;;57.20;99.90;;;;;;4875189;28;20188;-82
2021/05/12 10:42:57;;;;;;;55.67;51.78;;;57.40;99.90;;;;;;4838220;28;20255;-77
2021/05/12 10:45:36;;;;;;;87.18;77.80;;;57.50;99.90;;;;;;4856803;28;20258;-81
2021/05/12 10:47:58;;;;;;;105.18;98.38;;;58.10;99.90;;;;;;4878292;28;20176;-82
2021/05/12 10:50:22;;;;;;;124.70;116.93;;;58.50;99.90;;;;;;4859666;28;20244;-81
2021/05/12 10:53:17;;;;;;;70.68;65.90;;;58.40;1.00;;;;;;4877758;28;20185;-77
2021/05/12 10:56:01;;;;;;;98.50;91.72;;;59.00;99.90;;;;;;4866961;28;20196;-80
2021/05/12 10:58:24;;;;;;;85.75;79.88;;;59.40;99.90;;;;;;4873368;28;20208;-83
2021/05/12 11:00:56;;;;;;;89.72;76.15;;;59.40;99.90;;;;;;4875503;28;20258;-83
2021/05/12 11:03:18;;;;;;;61.72;56.90;;;;;;;;;;4860654;28;20553;-82
2021/05/12 11:05:43;;;;;;;72.22;54.90;;;59.70;99.90;;;;;;4856769;28;20255;-79
2021/05/12 11:08:15;;;;;;;38.45;35.53;;;60.00;99.90;;;;;;4842193;28;20202;-81
2021/05/12 11:10:49;;;;;;;44.55;39.80;;;59.80;99.90;;;;;;4869097;28;20339;-80
2021/05/12 11:13:19;;;;;;;34.30;29.55;;;59.80;99.90;;;;;;4874989;28;20239;-81
2021/05/12 11:15:55;;;;;;;44.67;38.78;;;60.20;99.90;;;;;;4841470;28;20221;-80
2021/05/12 11:18:59;;;;;;;40.88;36.90;;;59.80;1.00;;;;;;4873752;28;20227;-80
2021/05/12 11:21:35;;;;;;;27.67;23.02;;;60.10;99.90;;;;;;4840543;28;20200;-78
2021/05/12 11:24:20;;;;;;;31.25;28.30;;;60.00;99.90;;;;;;4868325;28;20188;-80
2021/05/12 11:26:54;;;;;;;56.40;50.25;;;;;;;;;;4849094;28;20202;-82
2021/05/12 11:32:03;;;;;;;92.57;87.00;;;60.70;99.90;;;;;;4853789;28;20663;-83
2021/05/12 11:34:25;;;;;;;103.18;96.45;;;;;;;;;;4876609;28;20196;-78
2021/05/12 11:36:48;;;;;;;88.43;81.50;;;60.40;99.90;;;;;;4841585;28;20221;-78
2021/05/12 11:39:10;;;;;;;159.65;151.23;;;;;;;;;;4857570;28;20645;-85
2021/05/12 11:41:33;;;;;;;201.18;190.07;;;;;;;;;;4859897;28;20608;-79
2021/05/12 11:43:56;;;;;;;58.28;54.30;;;59.70;99.90;;;;;;4843171;28;20197;-79
2021/05/12 11:46:19;;;;;;;65.07;60.85;;;59.50;99.90;;;;;;4857750;28;20227;-80
2021/05/12 11:48:44;;;;;;;142.68;133.63;;;59.70;99.90;;;;;;4875688;28;20246;-81
2021/05/12 11:51:07;;;;;;;107.20;100.82;;;;;;;;;;4858545;28;20238;-81
2021/05/12 11:53:30;;;;;;;81.97;77.03;;;59.80;99.90;;;;;;4860055;28;20259;-81
2021/05/12 11:55:57;;;;;;;44.50;41.75;;;59.90;99.90;;;;;;4841544;28;20279;-77
2021/05/12 11:58:23;;;;;;;22.40;15.10;;;60.00;99.90;;;;;;4875413;28;20262;-80
2021/05/12 12:00:45;;;;;;;61.53;26.23;;;59.70;1.00;;;;;;4855454;28;20197;-81
2021/05/12 12:03:09;;;;;;;8.80;5.00;;;60.60;1.00;;;;;;4858263;28;20262;-82
2021/05/12 12:05:37;;;;;;;22.45;7.05;;;;;;;;;;4831850;28;20245;-81
2021/05/12 12:08:09;;;;;;;10.20;5.47;;;60.00;1.00;;;;;;4858555;28;20201;-80
2021/05/12 12:10:32;;;;;;;20.65;7.70;;;60.40;99.90;;;;;;4834923;28;20271;-80
2021/05/12 12:12:56;;;;;;;8.57;5.32;;;60.60;99.90;;;;;;4875831;28;20188;-79
2021/05/12 12:15:19;;;;;;;50.22;11.70;;;61.20;99.90;;;;;;4875080;28;20189;-83
2021/05/12 12:17:41;;;;;;;17.83;7.28;;;;;;;;;;4875897;28;20573;-82
2021/05/12 12:20:05;;;;;;;10.85;6.28;;;60.40;1.00;;;;;;4874074;28;20205;-81
2021/05/12 12:22:27;;;;;;;16.75;6.90;;;;;;;;;;4857284;28;20283;-79
2021/05/12 12:24:50;;;;;;;14.93;6.32;;;;;;;;;;4856964;28;20181;-80
2021/05/12 12:27:13;;;;;;;8.77;5.50;;;59.80;99.90;;;;;;4875587;28;20216;-83
2021/05/12 12:29:36;;;;;;;23.13;7.15;;;59.70;99.90;;;;;;4840776;28;20189;-80
2021/05/12 12:32:01;;;;;;;9.10;5.40;;;59.80;99.90;;;;;;4857976;28;20201;-83
2021/05/12 12:34:25;;;;;;;17.15;6.22;;;59.30;99.90;;;;;;4857555;28;20616;-81
2021/05/12 12:36:54;;;;;;;18.23;5.93;;;58.80;99.90;;;;;;4857276;28;20235;-80
2021/05/12 12:39:16;;;;;;;11.65;4.90;;;;;;;;;;4858147;28;20221;-81
2021/05/12 12:41:38;;;;;;;29.02;7.20;;;58.80;1.00;;;;;;4840452;28;20204;-79
2021/05/12 12:44:01;;;;;;;12.13;5.40;;;59.60;1.00;;;;;;4857171;28;20201;-82
2021/05/12 12:46:27;;;;;;;14.07;5.32;;;59.10;99.90;;;;;;4856172;28;20300;-80
2021/05/12 12:48:50;;;;;;;8.23;4.65;;;;;;;;;;4858516;28;20201;-82
2021/05/12 12:51:12;;;;;;;9.10;4.85;;;59.60;99.90;;;;;;4857027;28;20235;-77
2021/05/12 12:53:34;;;;;;;23.00;6.30;;;;;;;;;;4857750;28;20193;-79
2021/05/12 12:56:10;;;;;;;8.13;4.43;;;59.40;1.00;;;;;;4856267;28;20606;-80
2021/05/12 12:58:32;;;;;;;21.42;6.50;;;58.50;1.00;;;;;;4873626;28;20250;-81
2021/05/12 13:00:55;;;;;;;18.83;5.50;;;58.50;1.00;;;;;;4871066;28;20188;-83
2021/05/12 13:03:22;;;;;;;133.93;123.47;;;58.80;99.90;;;;;;4884427;28;20200;-81
2021/05/12 13:05:47;;;;;;;510.17;476.05;;;58.70;99.90;;;;;;4874115;28;20242;-81
2021/05/12 13:08:22;;;;;;;472.75;445.20;;;58.50;1.00;;;;;;4876323;28;20180;-82
2021/05/12 13:10:45;;;;;;;509.90;475.98;;;58.40;99.90;;;;;;4874025;28;20260;-85
2021/05/12 13:13:07;;;;;;;524.97;487.60;;;58.10;99.90;;;;;;4875484;28;20211;-80
2021/05/12 13:15:31;;;;;;;511.27;478.90;;;58.10;99.90;;;;;;4873255;28;20208;-83
2021/05/12 13:17:57;;;;;;;437.48;412.48;;;58.00;99.90;;;;;;4857757;28;20281;-81